首页
METAR-TAF:

METAR-TAF

机场 :

空军基地

Meppen, 德国

纬度: 52-43-24N, 经度: 007-19-35E, 海拔: 21米

当前天气观测

该预报发布于1小时和10分钟前的21:20 UTC
风速3节,风向北转西北
温度 0°C
湿度 51%
气压 1034 hPa

METAR: ETWM 292120Z AUTO 34003KT //// // ////// M00/M09 Q1034 ///

时间: 00:30 (22:30 UTC)


TAF: 丢失

超过4000个机场的气象观测和天气预报(METAR&TAF报告)。

可查询的气象台以黄色和红色小点在地图上表示。

将鼠标移到小点上方,可查看气象台名称。

然后点击查看天气观测和预报。

如需切换地图:点击带黑十字的绿色按钮放大地图;点击带横线的绿色按钮缩小地图;或者点击绿色箭头查看邻近地区的地图。


METAR-TAF: